createdAt,value
2019-05-07T00:01:46.936Z,99.90
2019-05-07T00:04:15.489Z,99.90
2019-05-07T00:06:43.919Z,99.90
2019-05-07T00:09:13.674Z,99.90
2019-05-07T00:11:42.662Z,99.90
2019-05-07T00:14:12.567Z,99.90
2019-05-07T00:16:42.202Z,99.90
2019-05-07T00:19:12.857Z,99.90
2019-05-07T00:21:42.361Z,99.90
2019-05-07T00:24:13.180Z,99.90
2019-05-07T00:26:43.022Z,99.90
2019-05-07T00:29:12.933Z,99.90
2019-05-07T00:31:42.150Z,99.90
2019-05-07T00:34:12.631Z,99.90
2019-05-07T00:36:42.511Z,99.90
2019-05-07T00:39:32.745Z,99.90
2019-05-07T00:42:08.227Z,99.90
2019-05-07T00:44:38.290Z,99.90
2019-05-07T00:47:06.712Z,99.90
2019-05-07T00:49:35.164Z,99.90
2019-05-07T00:52:03.585Z,99.90
2019-05-07T00:54:32.547Z,99.90
2019-05-07T00:57:03.201Z,99.90
2019-05-07T00:59:32.236Z,99.90
2019-05-07T01:02:02.206Z,99.90
2019-05-07T01:04:33.076Z,99.90
2019-05-07T01:07:02.755Z,99.90
2019-05-07T01:09:32.395Z,99.90
2019-05-07T01:12:03.072Z,99.90
2019-05-07T01:14:37.556Z,99.90
2019-05-07T01:17:06.051Z,99.90
2019-05-07T01:19:35.129Z,99.90
2019-05-07T01:22:09.506Z,99.90
2019-05-07T01:24:37.914Z,99.90
2019-05-07T01:27:06.342Z,99.90
2019-05-07T01:29:34.750Z,99.90
2019-05-07T01:32:04.865Z,99.90
2019-05-07T01:34:44.126Z,99.90
2019-05-07T01:37:12.562Z,99.90
2019-05-07T01:39:42.189Z,99.90
2019-05-07T01:42:12.771Z,99.90
2019-05-07T01:44:42.022Z,99.90
2019-05-07T01:47:12.842Z,99.90
2019-05-07T01:49:42.146Z,99.90
2019-05-07T01:52:13.113Z,99.90
2019-05-07T01:54:42.633Z,99.90
2019-05-07T01:57:12.251Z,99.90
2019-05-07T01:59:42.616Z,99.90
2019-05-07T02:02:12.606Z,99.90
2019-05-07T02:04:48.675Z,99.90
2019-05-07T02:07:18.743Z,99.90
2019-05-07T02:09:48.819Z,99.90
2019-05-07T02:12:28.017Z,99.90
2019-05-07T02:14:56.614Z,99.90
2019-05-07T02:17:25.046Z,99.90
2019-05-07T02:19:53.466Z,99.90
2019-05-07T02:22:22.716Z,99.90
2019-05-07T02:24:52.320Z,99.90
2019-05-07T02:27:22.043Z,99.90
2019-05-07T02:29:52.848Z,99.90
2019-05-07T02:32:23.681Z,99.90
2019-05-07T02:35:13.398Z,99.90
2019-05-07T02:37:50.886Z,99.90
2019-05-07T02:40:26.307Z,99.90
2019-05-07T02:42:54.738Z,99.90
2019-05-07T02:45:24.799Z,99.90
2019-05-07T02:47:53.242Z,99.90
2019-05-07T02:50:33.097Z,99.90
2019-05-07T02:53:06.200Z,99.90
2019-05-07T02:55:39.421Z,99.90
2019-05-07T02:58:07.849Z,99.90
2019-05-07T03:00:36.259Z,99.90
2019-05-07T03:03:04.844Z,99.90
2019-05-07T03:05:34.948Z,99.90
2019-05-07T03:08:03.643Z,99.90
2019-05-07T03:10:33.958Z,99.90
2019-05-07T03:13:03.198Z,99.90
2019-05-07T03:15:33.254Z,99.90
2019-05-07T03:18:03.444Z,99.90
2019-05-07T03:20:34.908Z,99.90
2019-05-07T03:23:04.363Z,99.90
2019-05-07T03:25:49.381Z,99.90
2019-05-07T03:28:18.756Z,99.90
2019-05-07T03:31:05.713Z,99.90
2019-05-07T03:33:36.954Z,99.90
2019-05-07T03:36:07.996Z,99.90
2019-05-07T03:38:36.693Z,99.90
2019-05-07T03:41:05.161Z,99.90
2019-05-07T03:43:33.676Z,99.90
2019-05-07T03:46:15.738Z,99.90
2019-05-07T03:48:45.313Z,99.90
2019-05-07T03:51:13.729Z,99.90
2019-05-07T03:53:43.527Z,99.90
2019-05-07T03:56:13.208Z,99.90
2019-05-07T03:58:43.273Z,99.90
2019-05-07T04:01:13.270Z,99.90
2019-05-07T04:03:44.565Z,99.90
2019-05-07T04:06:12.925Z,99.90
2019-05-07T04:08:43.196Z,99.90
2019-05-07T04:11:13.758Z,99.90
2019-05-07T04:13:44.052Z,99.90
2019-05-07T04:16:13.585Z,99.90
2019-05-07T04:18:43.678Z,99.90
2019-05-07T04:21:14.012Z,99.90
2019-05-07T04:23:43.682Z,99.90
2019-05-07T04:26:16.933Z,99.90
2019-05-07T04:29:05.681Z,99.90
2019-05-07T04:31:34.485Z,99.90
2019-05-07T04:34:04.783Z,99.90
2019-05-07T04:36:34.456Z,99.90
2019-05-07T04:39:03.438Z,99.90
2019-05-07T04:41:32.940Z,99.90
2019-05-07T04:44:03.683Z,99.90
2019-05-07T04:46:33.310Z,99.90
2019-05-07T04:49:03.779Z,99.90
2019-05-07T04:51:34.017Z,99.90
2019-05-07T04:54:03.571Z,99.90
2019-05-07T04:56:33.624Z,99.90
2019-05-07T04:59:03.589Z,99.90
2019-05-07T05:01:34.131Z,99.90
2019-05-07T05:04:20.499Z,99.90
2019-05-07T05:06:33.041Z,99.90
2019-05-07T05:09:02.986Z,99.90
2019-05-07T05:11:33.560Z,99.90
2019-05-07T05:14:02.763Z,99.90
2019-05-07T05:16:32.744Z,99.90
2019-05-07T05:19:02.518Z,99.90
2019-05-07T05:21:32.759Z,99.90
2019-05-07T05:24:02.829Z,99.90
2019-05-07T05:26:32.480Z,99.90
2019-05-07T05:29:02.434Z,99.90
2019-05-07T05:31:32.972Z,99.90
2019-05-07T05:34:02.230Z,99.90
2019-05-07T05:36:32.786Z,99.90
2019-05-07T05:39:02.496Z,99.90
2019-05-07T05:41:34.041Z,99.90
2019-05-07T05:44:03.822Z,99.90
2019-05-07T05:46:33.548Z,99.90
2019-05-07T05:49:02.586Z,99.90
2019-05-07T05:51:45.271Z,99.90
2019-05-07T05:54:33.498Z,99.90
2019-05-07T05:57:18.520Z,99.90
2019-05-07T05:59:52.078Z,99.90
2019-05-07T06:02:35.335Z,99.90
2019-05-07T06:05:22.424Z,99.90
2019-05-07T06:08:04.722Z,99.90
2019-05-07T06:10:42.459Z,99.90
2019-05-07T06:13:12.678Z,99.90
2019-05-07T06:15:58.965Z,99.90
2019-05-07T06:18:45.012Z,99.90
2019-05-07T06:21:32.212Z,99.90
2019-05-07T06:24:02.301Z,99.90
2019-05-07T06:26:31.892Z,99.90
2019-05-07T06:29:02.440Z,99.90
2019-05-07T06:31:32.619Z,99.90
2019-05-07T06:34:01.836Z,99.90
2019-05-07T06:36:32.882Z,99.90
2019-05-07T06:39:12.596Z,99.90
2019-05-07T06:41:55.020Z,99.90
2019-05-07T06:44:24.375Z,99.90
2019-05-07T06:46:52.895Z,99.90
2019-05-07T06:49:22.371Z,99.90
2019-05-07T06:51:52.806Z,99.90
2019-05-07T06:54:22.535Z,99.90
2019-05-07T06:56:52.378Z,99.90
2019-05-07T06:59:28.363Z,99.90
2019-05-07T07:01:59.317Z,99.90
2019-05-07T07:04:29.477Z,99.90
2019-05-07T07:07:01.808Z,99.90
2019-05-07T07:09:34.295Z,99.90
2019-05-07T07:12:04.541Z,99.90
2019-05-07T07:14:42.374Z,99.90
2019-05-07T07:17:12.949Z,99.90
2019-05-07T07:19:42.812Z,99.90
2019-05-07T07:22:12.998Z,99.90
2019-05-07T07:24:42.385Z,99.90
2019-05-07T07:27:13.194Z,99.90
2019-05-07T07:29:52.345Z,99.90
2019-05-07T07:32:22.483Z,99.90
2019-05-07T07:34:53.267Z,99.90
2019-05-07T07:37:29.475Z,99.90
2019-05-07T07:40:17.570Z,99.90
2019-05-07T07:42:46.006Z,99.90
2019-05-07T07:45:18.275Z,99.90
2019-05-07T07:47:47.299Z,99.90
2019-05-07T07:50:16.684Z,99.90
2019-05-07T07:52:45.145Z,99.90
2019-05-07T07:55:16.271Z,99.90
2019-05-07T07:57:55.067Z,99.90
2019-05-07T08:00:26.169Z,99.90
2019-05-07T08:02:57.183Z,99.90
2019-05-07T08:05:25.609Z,99.90
2019-05-07T08:07:54.058Z,99.90
2019-05-07T08:10:22.544Z,99.90
2019-05-07T08:12:52.578Z,99.90
2019-05-07T08:15:24.500Z,99.90
2019-05-07T08:17:54.334Z,99.90
2019-05-07T08:20:24.294Z,99.90
2019-05-07T08:22:53.113Z,99.90
2019-05-07T08:25:23.186Z,98.90
2019-05-07T08:27:52.412Z,99.70
2019-05-07T08:30:22.842Z,98.60
2019-05-07T08:32:55.647Z,98.70
2019-05-07T08:35:45.047Z,98.90
2019-05-07T08:38:13.571Z,98.70
2019-05-07T08:40:42.043Z,99.20
2019-05-07T08:43:12.578Z,99.10
2019-05-07T08:45:58.706Z,98.90
2019-05-07T08:48:38.264Z,99.40
2019-05-07T08:51:06.694Z,99.40
2019-05-07T08:53:35.136Z,97.60
2019-05-07T08:56:03.634Z,96.90
2019-05-07T08:58:32.241Z,95.70
2019-05-07T09:01:03.349Z,91.10
2019-05-07T09:03:44.087Z,90.70
2019-05-07T09:06:34.534Z,90.40
2019-05-07T09:09:08.695Z,91.30
2019-05-07T09:11:37.122Z,90.70
2019-05-07T09:14:05.615Z,90.60
2019-05-07T09:16:34.038Z,89.90
2019-05-07T09:19:02.631Z,88.40
2019-05-07T09:21:32.170Z,86.70
2019-05-07T09:24:02.496Z,86.90
2019-05-07T09:26:32.769Z,87.00
2019-05-07T09:29:02.833Z,78.40
2019-05-07T09:31:52.544Z,81.40
2019-05-07T09:34:22.805Z,80.90
2019-05-07T09:37:02.441Z,80.30
2019-05-07T09:39:32.485Z,77.80
2019-05-07T09:42:02.226Z,79.70
2019-05-07T09:44:32.490Z,75.20
2019-05-07T09:47:02.625Z,73.40
2019-05-07T09:49:32.686Z,72.40
2019-05-07T09:52:02.619Z,68.60
2019-05-07T09:54:32.302Z,68.50
2019-05-07T09:57:01.997Z,67.80
2019-05-07T09:59:32.333Z,66.50
2019-05-07T10:02:01.842Z,67.10
2019-05-07T10:04:32.572Z,69.20
2019-05-07T10:07:02.563Z,68.90
2019-05-07T10:09:32.764Z,67.20
2019-05-07T10:12:03.146Z,66.80
2019-05-07T10:14:33.059Z,63.60
2019-05-07T10:17:12.186Z,63.90
2019-05-07T10:19:41.759Z,63.60
2019-05-07T10:22:12.456Z,63.20
2019-05-07T10:24:41.920Z,60.40
2019-05-07T10:27:12.639Z,62.20
2019-05-07T10:29:42.809Z,60.00
2019-05-07T10:32:12.792Z,58.10
2019-05-07T10:34:42.240Z,58.20
2019-05-07T10:37:12.090Z,58.10
2019-05-07T10:39:42.891Z,59.40
2019-05-07T10:42:12.352Z,59.00
2019-05-07T10:44:43.308Z,58.10
2019-05-07T10:47:30.085Z,56.70
2019-05-07T10:50:16.366Z,52.90
2019-05-07T10:52:44.907Z,51.20
2019-05-07T10:55:13.598Z,51.40
2019-05-07T10:57:42.314Z,50.70
2019-05-07T11:00:13.135Z,51.40
2019-05-07T11:02:42.617Z,52.50
2019-05-07T11:05:13.001Z,53.40
2019-05-07T11:07:42.207Z,55.00
2019-05-07T11:10:12.369Z,56.00
2019-05-07T11:12:42.501Z,56.90
2019-05-07T11:15:12.606Z,55.60
2019-05-07T11:17:45.340Z,53.10
2019-05-07T11:20:15.090Z,52.50
2019-05-07T11:22:43.518Z,53.00
2019-05-07T11:25:12.198Z,54.10
2019-05-07T11:27:42.156Z,55.00
2019-05-07T11:30:11.993Z,55.30
2019-05-07T11:32:42.791Z,55.30
2019-05-07T11:35:11.767Z,55.70
2019-05-07T11:37:44.139Z,54.80
2019-05-07T11:40:13.101Z,55.00
2019-05-07T11:42:55.191Z,55.50
2019-05-07T11:45:25.255Z,50.00
2019-05-07T11:47:53.677Z,50.80
2019-05-07T11:50:29.603Z,52.00
2019-05-07T11:52:59.731Z,52.40
2019-05-07T11:55:28.202Z,52.30
2019-05-07T11:57:56.633Z,52.30
2019-05-07T12:00:42.662Z,51.50
2019-05-07T12:03:11.251Z,52.20
2019-05-07T12:05:39.676Z,52.40
2019-05-07T12:08:08.116Z,51.70
2019-05-07T12:10:36.550Z,48.50
2019-05-07T12:13:05.092Z,48.60
2019-05-07T12:15:33.563Z,48.10
2019-05-07T12:18:03.107Z,48.20
2019-05-07T12:20:32.449Z,48.20
2019-05-07T12:23:02.928Z,48.80
2019-05-07T12:25:32.105Z,48.50
2019-05-07T12:28:02.369Z,49.80
2019-05-07T12:30:32.939Z,48.70
2019-05-07T12:33:12.413Z,50.30
2019-05-07T12:35:42.044Z,45.30
2019-05-07T12:38:12.688Z,42.40
2019-05-07T12:40:41.919Z,43.00
2019-05-07T12:43:10.664Z,40.70
2019-05-07T12:45:39.195Z,41.40
2019-05-07T12:48:07.601Z,40.90
2019-05-07T12:50:36.033Z,41.60
2019-05-07T12:53:22.477Z,43.10
2019-05-07T12:55:52.530Z,43.90
2019-05-07T12:58:21.808Z,43.30
2019-05-07T13:00:52.177Z,44.30
2019-05-07T13:03:34.326Z,44.20
2019-05-07T13:06:02.758Z,45.00
2019-05-07T13:08:32.979Z,45.00
2019-05-07T13:11:03.023Z,44.50
2019-05-07T13:13:32.025Z,45.10
2019-05-07T13:16:02.725Z,44.40
2019-05-07T13:18:31.461Z,44.60
2019-05-07T13:21:01.979Z,45.30
2019-05-07T13:23:31.820Z,44.80
2019-05-07T13:26:02.352Z,45.50
2019-05-07T13:28:30.382Z,45.80
2019-05-07T13:30:58.816Z,45.30
2019-05-07T13:33:27.686Z,45.50
2019-05-07T13:35:56.107Z,45.50
2019-05-07T13:38:42.645Z,44.00
2019-05-07T13:41:18.825Z,43.90
2019-05-07T13:43:58.020Z,44.00
2019-05-07T13:46:27.201Z,44.30
2019-05-07T13:48:55.998Z,45.20
2019-05-07T13:51:24.495Z,44.90
2019-05-07T13:53:52.921Z,45.10
2019-05-07T13:56:22.008Z,43.40
2019-05-07T13:58:52.229Z,42.80
2019-05-07T14:01:22.967Z,38.80
2019-05-07T14:03:51.515Z,38.30
2019-05-07T14:06:37.882Z,38.70
2019-05-07T14:09:10.346Z,37.30
2019-05-07T14:11:38.923Z,38.40
2019-05-07T14:14:07.337Z,39.20
2019-05-07T14:16:35.780Z,39.20
2019-05-07T14:19:04.444Z,39.40
2019-05-07T14:21:32.894Z,39.90
2019-05-07T14:24:01.335Z,40.10
2019-05-07T14:26:29.764Z,39.80
2019-05-07T14:28:58.225Z,39.10
2019-05-07T14:31:26.670Z,39.00
2019-05-07T14:33:59.445Z,39.20
2019-05-07T14:36:42.663Z,39.50
2019-05-07T14:39:11.214Z,39.50
2019-05-07T14:41:39.637Z,40.00
2019-05-07T14:44:11.937Z,41.00
2019-05-07T14:46:49.765Z,40.90
2019-05-07T14:49:12.105Z,40.50
2019-05-07T14:51:40.676Z,41.60
2019-05-07T14:54:09.174Z,41.70
2019-05-07T14:56:37.608Z,41.40
2019-05-07T14:59:06.189Z,41.60
2019-05-07T15:01:34.708Z,41.20
2019-05-07T15:04:03.387Z,42.40
2019-05-07T15:06:41.035Z,41.90
2019-05-07T15:09:09.494Z,40.70
2019-05-07T15:11:37.924Z,39.90
2019-05-07T15:14:06.410Z,39.60
2019-05-07T15:16:34.879Z,40.70
2019-05-07T15:19:03.319Z,42.30
2019-05-07T15:21:32.332Z,41.20
2019-05-07T15:24:02.259Z,42.30
2019-05-07T15:26:32.679Z,41.40
2019-05-07T15:29:02.717Z,41.20
2019-05-07T15:31:35.470Z,40.40
2019-05-07T15:34:04.034Z,41.80
2019-05-07T15:36:32.471Z,41.50
2019-05-07T15:39:02.769Z,40.90
2019-05-07T15:41:32.089Z,40.20
2019-05-07T15:44:02.723Z,41.30
2019-05-07T15:46:32.213Z,41.30
2019-05-07T15:49:01.844Z,42.30
2019-05-07T15:51:32.657Z,42.90
2019-05-07T15:54:03.386Z,41.30
2019-05-07T15:56:32.387Z,40.80
2019-05-07T15:59:02.256Z,40.80
2019-05-07T16:01:30.830Z,40.40
2019-05-07T16:03:59.254Z,40.60
2019-05-07T16:06:27.705Z,40.10
2019-05-07T16:08:57.785Z,40.30
2019-05-07T16:11:26.207Z,40.90
2019-05-07T16:14:05.493Z,40.90
2019-05-07T16:16:35.634Z,41.20
2019-05-07T16:19:06.436Z,41.70
2019-05-07T16:21:34.866Z,40.10
2019-05-07T16:24:04.126Z,40.20
2019-05-07T16:26:32.814Z,41.10
2019-05-07T16:29:04.304Z,40.30
2019-05-07T16:31:33.223Z,41.50
2019-05-07T16:34:02.554Z,43.10
2019-05-07T16:36:32.929Z,41.80
2019-05-07T16:39:03.261Z,41.30
2019-05-07T16:41:31.781Z,42.20
2019-05-07T16:44:02.711Z,39.90
2019-05-07T16:46:30.948Z,39.30
2019-05-07T16:48:59.405Z,39.60
2019-05-07T16:51:27.833Z,40.20
2019-05-07T16:53:56.613Z,40.10
2019-05-07T16:56:25.092Z,39.20
2019-05-07T16:58:55.160Z,40.10
2019-05-07T17:01:24.626Z,40.50
2019-05-07T17:03:55.167Z,41.10
2019-05-07T17:06:25.126Z,41.70
2019-05-07T17:09:02.632Z,41.50
2019-05-07T17:11:32.068Z,41.80
2019-05-07T17:14:02.290Z,40.70
2019-05-07T17:16:31.795Z,41.60
2019-05-07T17:19:02.364Z,41.10
2019-05-07T17:21:32.481Z,41.40
2019-05-07T17:24:02.589Z,42.40
2019-05-07T17:26:30.829Z,41.60
2019-05-07T17:28:59.245Z,42.10
2019-05-07T17:31:27.676Z,43.20
2019-05-07T17:33:56.104Z,42.90
2019-05-07T17:36:24.600Z,43.20
2019-05-07T17:38:53.048Z,43.80
2019-05-07T17:41:26.527Z,44.00
2019-05-07T17:43:52.104Z,44.40
2019-05-07T17:46:23.732Z,44.60
2019-05-07T17:48:52.535Z,44.90
2019-05-07T17:51:42.122Z,45.60
2019-05-07T17:54:13.228Z,47.10
2019-05-07T17:56:42.366Z,45.80
2019-05-07T17:59:12.259Z,46.80
2019-05-07T18:01:53.024Z,46.70
2019-05-07T18:04:21.624Z,47.70
2019-05-07T18:06:52.043Z,47.00
2019-05-07T18:09:22.425Z,47.00
2019-05-07T18:11:52.220Z,46.30
2019-05-07T18:14:22.818Z,46.90
2019-05-07T18:16:58.821Z,46.90
2019-05-07T18:19:28.887Z,47.10
2019-05-07T18:21:57.330Z,47.30
2019-05-07T18:24:25.738Z,48.20
2019-05-07T18:26:54.159Z,48.60
2019-05-07T18:29:22.652Z,48.70
2019-05-07T18:31:52.761Z,48.10
2019-05-07T18:34:21.224Z,48.70
2019-05-07T18:36:49.629Z,48.40
2019-05-07T18:39:20.330Z,48.60
2019-05-07T18:41:49.110Z,49.30
2019-05-07T18:44:17.551Z,49.10
2019-05-07T18:46:45.958Z,49.50
2019-05-07T18:49:14.394Z,49.40
2019-05-07T18:51:42.807Z,48.90
2019-05-07T18:54:11.987Z,49.40
2019-05-07T18:56:42.101Z,50.10
2019-05-07T18:59:11.560Z,50.10
2019-05-07T19:01:42.266Z,51.20
2019-05-07T19:04:12.817Z,52.40
2019-05-07T19:06:42.453Z,54.00
2019-05-07T19:09:11.194Z,53.90
2019-05-07T19:11:39.609Z,53.30
2019-05-07T19:14:08.039Z,52.80
2019-05-07T19:16:36.462Z,52.80
2019-05-07T19:19:04.995Z,53.00
2019-05-07T19:21:33.420Z,53.30
2019-05-07T19:24:02.405Z,53.40
2019-05-07T19:26:30.978Z,53.10
2019-05-07T19:28:59.398Z,52.80
2019-05-07T19:31:27.822Z,52.30
2019-05-07T19:33:56.241Z,52.00
2019-05-07T19:36:24.671Z,51.90
2019-05-07T19:38:53.104Z,51.70
2019-05-07T19:41:21.516Z,51.80
2019-05-07T19:43:49.946Z,51.70
2019-05-07T19:46:18.358Z,51.30
2019-05-07T19:48:46.785Z,51.20
2019-05-07T19:51:15.218Z,51.40
2019-05-07T19:53:43.669Z,51.50
2019-05-07T19:56:15.455Z,51.70
2019-05-07T19:58:45.629Z,51.70
2019-05-07T20:01:17.284Z,51.80
2019-05-07T20:03:47.944Z,52.30
2019-05-07T20:06:16.625Z,52.50
2019-05-07T20:08:45.029Z,52.60
2019-05-07T20:11:31.992Z,53.00
2019-05-07T20:14:02.785Z,53.30
2019-05-07T20:16:32.586Z,53.50
2019-05-07T20:19:01.530Z,53.60
2019-05-07T20:21:32.603Z,53.90
2019-05-07T20:24:04.945Z,54.30
2019-05-07T20:26:33.503Z,54.40
2019-05-07T20:29:03.028Z,54.50
2019-05-07T20:31:33.496Z,54.80
2019-05-07T20:34:02.417Z,54.80
2019-05-07T20:36:32.692Z,54.90
2019-05-07T20:39:04.074Z,54.70
2019-05-07T20:41:33.165Z,55.70
2019-05-07T20:44:02.828Z,56.20
2019-05-07T20:46:35.562Z,55.40
2019-05-07T20:49:04.073Z,56.20
2019-05-07T20:51:36.083Z,58.30
2019-05-07T20:54:09.042Z,59.70
2019-05-07T20:56:39.247Z,60.70
2019-05-07T20:59:12.310Z,61.50
2019-05-07T21:01:42.006Z,63.10
2019-05-07T21:04:12.646Z,64.80
2019-05-07T21:07:01.968Z,66.50
2019-05-07T21:09:30.179Z,66.10
2019-05-07T21:11:58.664Z,67.20
2019-05-07T21:14:27.144Z,68.20
2019-05-07T21:16:55.627Z,68.20
2019-05-07T21:19:25.028Z,68.50
2019-05-07T21:21:53.563Z,69.10
2019-05-07T21:24:22.635Z,69.40
2019-05-07T21:26:53.071Z,69.90
2019-05-07T21:29:21.466Z,70.60
2019-05-07T21:31:52.194Z,71.40
2019-05-07T21:34:20.116Z,72.00
2019-05-07T21:36:48.634Z,72.80
2019-05-07T21:39:17.050Z,73.20
2019-05-07T21:41:45.511Z,74.50
2019-05-07T21:44:13.985Z,74.60
2019-05-07T21:46:42.733Z,75.20
2019-05-07T21:49:12.173Z,75.90
2019-05-07T21:51:40.834Z,77.20
2019-05-07T21:54:13.536Z,78.50
2019-05-07T21:56:43.577Z,80.60
2019-05-07T21:59:16.400Z,81.90
2019-05-07T22:01:52.636Z,83.80
2019-05-07T22:04:20.997Z,85.70
2019-05-07T22:06:49.411Z,87.90
2019-05-07T22:09:18.395Z,90.00
2019-05-07T22:11:46.854Z,90.90
2019-05-07T22:14:15.271Z,92.10
2019-05-07T22:16:43.704Z,93.10
2019-05-07T22:19:12.339Z,94.20
2019-05-07T22:21:43.270Z,95.10
2019-05-07T22:24:14.657Z,95.70
2019-05-07T22:26:42.102Z,96.40
2019-05-07T22:29:12.557Z,97.10
2019-05-07T22:31:44.196Z,98.00
2019-05-07T22:34:29.658Z,98.80
2019-05-07T22:36:58.081Z,99.20
2019-05-07T22:39:26.602Z,99.30
2019-05-07T22:41:55.006Z,99.40
2019-05-07T22:44:26.094Z,99.50
2019-05-07T22:46:53.671Z,99.50
2019-05-07T22:49:22.868Z,99.00
2019-05-07T22:51:54.637Z,99.10
2019-05-07T22:54:22.587Z,98.90
2019-05-07T22:57:04.977Z,99.20
2019-05-07T22:59:33.416Z,99.90
2019-05-07T23:02:03.149Z,99.90
2019-05-07T23:04:32.586Z,99.90
2019-05-07T23:07:02.951Z,99.90
2019-05-07T23:09:35.435Z,99.90
2019-05-07T23:12:03.864Z,99.90
2019-05-07T23:14:32.988Z,99.90
2019-05-07T23:17:02.220Z,99.90
2019-05-07T23:19:32.682Z,99.90
2019-05-07T23:22:02.780Z,99.90
2019-05-07T23:24:31.844Z,99.90
2019-05-07T23:27:00.475Z,99.90
2019-05-07T23:29:28.911Z,99.90
2019-05-07T23:31:57.318Z,99.90
2019-05-07T23:34:25.765Z,99.90
2019-05-07T23:36:54.193Z,99.90
2019-05-07T23:39:24.261Z,99.90
2019-05-07T23:41:56.919Z,99.90
2019-05-07T23:44:25.349Z,99.90
2019-05-07T23:46:53.852Z,99.90
2019-05-07T23:49:23.234Z,99.90
2019-05-07T23:51:53.066Z,99.90
2019-05-07T23:54:22.942Z,99.90
2019-05-07T23:57:05.082Z,99.90
2019-05-07T23:59:22.366Z,99.90
